sensor_id;sensor_type;location;lat;lon;timestamp;pressure;altitude;pressure_sealevel;temperature;humidity
83514;BME280;73447;53.262;10.424;2024-03-25T00:01:27;99941.38;;;4.54;93.40
83514;BME280;73447;53.262;10.424;2024-03-25T00:03:53;99945.81;;;4.60;94.13
83514;BME280;73447;53.262;10.424;2024-03-25T00:06:19;99941.81;;;4.70;92.97
83514;BME280;73447;53.262;10.424;2024-03-25T00:08:44;99956.22;;;4.50;94.03
83514;BME280;73447;53.262;10.424;2024-03-25T00:11:09;99950.56;;;4.40;95.41
83514;BME280;73447;53.262;10.424;2024-03-25T00:13:35;99960.31;;;4.53;94.78
83514;BME280;73447;53.262;10.424;2024-03-25T00:16:00;99965.38;;;4.61;93.69
83514;BME280;73447;53.262;10.424;2024-03-25T00:18:25;99963.28;;;4.44;94.69
83514;BME280;73447;53.262;10.424;2024-03-25T00:20:51;99957.19;;;4.56;93.94
83514;BME280;73447;53.262;10.424;2024-03-25T00:23:17;99965.97;;;4.63;93.39
83514;BME280;73447;53.262;10.424;2024-03-25T00:25:42;99963.94;;;4.58;93.09
83514;BME280;73447;53.262;10.424;2024-03-25T00:28:07;99974.72;;;4.70;93.03
83514;BME280;73447;53.262;10.424;2024-03-25T00:30:33;99968.56;;;4.70;93.04
83514;BME280;73447;53.262;10.424;2024-03-25T00:32:59;99970.72;;;4.61;93.07
83514;BME280;73447;53.262;10.424;2024-03-25T00:35:25;99974.28;;;4.55;92.25
83514;BME280;73447;53.262;10.424;2024-03-25T00:37:50;99979.63;;;4.55;92.96
83514;BME280;73447;53.262;10.424;2024-03-25T00:40:15;99975.09;;;4.55;93.96
83514;BME280;73447;53.262;10.424;2024-03-25T00:42:41;99977.69;;;4.43;93.27
83514;BME280;73447;53.262;10.424;2024-03-25T00:45:07;99987.25;;;4.33;94.07
83514;BME280;73447;53.262;10.424;2024-03-25T00:47:32;99987.03;;;4.34;93.76
83514;BME280;73447;53.262;10.424;2024-03-25T00:49:58;99982.50;;;4.35;93.51
83514;BME280;73447;53.262;10.424;2024-03-25T00:52:23;99993.34;;;4.40;93.09
83514;BME280;73447;53.262;10.424;2024-03-25T00:54:49;99998.38;;;4.30;93.76
83514;BME280;73447;53.262;10.424;2024-03-25T00:57:14;99987.50;;;4.50;93.81
83514;BME280;73447;53.262;10.424;2024-03-25T00:59:40;99996.25;;;4.38;93.01
83514;BME280;73447;53.262;10.424;2024-03-25T01:02:06;99996.75;;;4.28;93.02
83514;BME280;73447;53.262;10.424;2024-03-25T01:04:31;99997.69;;;4.59;92.05
83514;BME280;73447;53.262;10.424;2024-03-25T01:06:57;100002.81;;;4.42;93.03
83514;BME280;73447;53.262;10.424;2024-03-25T01:09:23;99999.22;;;4.49;92.31
83514;BME280;73447;53.262;10.424;2024-03-25T01:11:50;100008.94;;;4.43;92.60
83514;BME280;73447;53.262;10.424;2024-03-25T01:14:15;100008.16;;;4.42;92.30
83514;BME280;73447;53.262;10.424;2024-03-25T01:16:41;100017.56;;;4.45;91.92
83514;BME280;73447;53.262;10.424;2024-03-25T01:19:08;100015.41;;;4.54;90.86
83514;BME280;73447;53.262;10.424;2024-03-25T01:21:33;100013.81;;;4.53;90.81
83514;BME280;73447;53.262;10.424;2024-03-25T01:24:00;100016.25;;;4.54;90.53
83514;BME280;73447;53.262;10.424;2024-03-25T01:26:25;100014.25;;;4.50;91.63
83514;BME280;73447;53.262;10.424;2024-03-25T01:28:51;100017.50;;;4.52;91.36
83514;BME280;73447;53.262;10.424;2024-03-25T01:31:16;100032.91;;;4.31;91.62
83514;BME280;73447;53.262;10.424;2024-03-25T01:33:41;100030.56;;;4.16;91.89
83514;BME280;73447;53.262;10.424;2024-03-25T01:36:07;100023.03;;;4.32;92.83
83514;BME280;73447;53.262;10.424;2024-03-25T01:38:32;100029.47;;;4.24;93.71
83514;BME280;73447;53.262;10.424;2024-03-25T01:41:11;100025.75;;;4.25;93.84
83514;BME280;73447;53.262;10.424;2024-03-25T01:43:37;100031.38;;;4.17;95.02
83514;BME280;73447;53.262;10.424;2024-03-25T01:46:04;100025.13;;;4.04;95.40
83514;BME280;73447;53.262;10.424;2024-03-25T01:48:31;100026.94;;;4.11;95.39
83514;BME280;73447;53.262;10.424;2024-03-25T01:50:57;100032.59;;;4.21;94.95
83514;BME280;73447;53.262;10.424;2024-03-25T01:53:23;100038.59;;;4.16;95.75
83514;BME280;73447;53.262;10.424;2024-03-25T01:55:51;100034.00;;;3.98;95.13
83514;BME280;73447;53.262;10.424;2024-03-25T01:58:21;100035.69;;;3.93;96.31
83514;BME280;73447;53.262;10.424;2024-03-25T02:00:46;100043.81;;;4.04;96.08
83514;BME280;73447;53.262;10.424;2024-03-25T02:03:13;100047.47;;;4.10;95.54
83514;BME280;73447;53.262;10.424;2024-03-25T02:05:38;100049.66;;;4.20;94.91
83514;BME280;73447;53.262;10.424;2024-03-25T02:08:05;100050.19;;;4.28;94.84
83514;BME280;73447;53.262;10.424;2024-03-25T02:10:32;100063.78;;;4.27;94.31
83514;BME280;73447;53.262;10.424;2024-03-25T02:12:58;100065.16;;;4.11;95.54
83514;BME280;73447;53.262;10.424;2024-03-25T02:15:23;100066.44;;;4.02;96.43
83514;BME280;73447;53.262;10.424;2024-03-25T02:17:51;100061.03;;;4.08;96.14
83514;BME280;73447;53.262;10.424;2024-03-25T02:20:17;100068.78;;;4.17;96.32
83514;BME280;73447;53.262;10.424;2024-03-25T02:22:42;100056.44;;;4.22;96.46
83514;BME280;73447;53.262;10.424;2024-03-25T02:25:10;100064.34;;;4.11;96.65
83514;BME280;73447;53.262;10.424;2024-03-25T02:27:39;100070.63;;;3.91;97.55
83514;BME280;73447;53.262;10.424;2024-03-25T02:30:05;100074.28;;;3.97;97.00
83514;BME280;73447;53.262;10.424;2024-03-25T02:32:32;100073.56;;;3.83;97.49
83514;BME280;73447;53.262;10.424;2024-03-25T02:34:58;100079.81;;;3.63;98.90
83514;BME280;73447;53.262;10.424;2024-03-25T02:37:24;100078.94;;;3.76;99.00
83514;BME280;73447;53.262;10.424;2024-03-25T02:39:51;100077.44;;;3.87;96.79
83514;BME280;73447;53.262;10.424;2024-03-25T02:42:17;100086.66;;;3.91;97.08
83514;BME280;73447;53.262;10.424;2024-03-25T02:44:42;100078.84;;;3.89;97.80
83514;BME280;73447;53.262;10.424;2024-03-25T02:47:09;100086.69;;;3.84;97.70
83514;BME280;73447;53.262;10.424;2024-03-25T02:49:35;100085.91;;;3.84;97.43
83514;BME280;73447;53.262;10.424;2024-03-25T02:52:01;100088.91;;;3.94;97.30
83514;BME280;73447;53.262;10.424;2024-03-25T02:54:26;100086.06;;;3.89;97.33
83514;BME280;73447;53.262;10.424;2024-03-25T02:56:52;100087.00;;;4.01;96.73
83514;BME280;73447;53.262;10.424;2024-03-25T02:59:18;100101.88;;;3.90;97.27
83514;BME280;73447;53.262;10.424;2024-03-25T03:01:43;100100.34;;;4.01;96.63
83514;BME280;73447;53.262;10.424;2024-03-25T03:04:08;100100.06;;;4.16;95.96
83514;BME280;73447;53.262;10.424;2024-03-25T03:06:34;100105.16;;;3.93;96.43
83514;BME280;73447;53.262;10.424;2024-03-25T03:08:59;100110.09;;;3.89;97.74
83514;BME280;73447;53.262;10.424;2024-03-25T03:11:24;100121.56;;;3.96;97.81
83514;BME280;73447;53.262;10.424;2024-03-25T03:13:50;100125.13;;;3.83;98.23
83514;BME280;73447;53.262;10.424;2024-03-25T03:16:15;100126.41;;;4.13;96.64
83514;BME280;73447;53.262;10.424;2024-03-25T03:18:41;100128.09;;;4.00;97.70
83514;BME280;73447;53.262;10.424;2024-03-25T03:21:06;100132.25;;;3.96;98.30
83514;BME280;73447;53.262;10.424;2024-03-25T03:23:31;100139.38;;;4.09;97.49
83514;BME280;73447;53.262;10.424;2024-03-25T03:25:57;100139.31;;;3.84;98.26
83514;BME280;73447;53.262;10.424;2024-03-25T03:28:25;100146.59;;;4.02;98.51
83514;BME280;73447;53.262;10.424;2024-03-25T03:30:50;100154.47;;;3.90;98.39
83514;BME280;73447;53.262;10.424;2024-03-25T03:33:15;100151.50;;;4.05;97.79
83514;BME280;73447;53.262;10.424;2024-03-25T03:35:42;100164.25;;;4.09;98.84
83514;BME280;73447;53.262;10.424;2024-03-25T03:38:07;100161.81;;;4.01;98.63
83514;BME280;73447;53.262;10.424;2024-03-25T03:40:33;100166.88;;;3.78;98.34
83514;BME280;73447;53.262;10.424;2024-03-25T03:42:58;100167.25;;;3.81;98.87
83514;BME280;73447;53.262;10.424;2024-03-25T03:45:24;100174.47;;;3.81;98.33
83514;BME280;73447;53.262;10.424;2024-03-25T03:47:50;100168.00;;;3.95;98.87
83514;BME280;73447;53.262;10.424;2024-03-25T03:50:15;100180.34;;;3.96;97.55
83514;BME280;73447;53.262;10.424;2024-03-25T03:52:41;100176.09;;;3.82;97.79
83514;BME280;73447;53.262;10.424;2024-03-25T03:55:07;100186.56;;;3.83;98.31
83514;BME280;73447;53.262;10.424;2024-03-25T03:57:32;100187.44;;;3.70;98.72
83514;BME280;73447;53.262;10.424;2024-03-25T03:59:58;100184.78;;;3.70;98.17
83514;BME280;73447;53.262;10.424;2024-03-25T04:02:23;100192.91;;;3.89;97.89
83514;BME280;73447;53.262;10.424;2024-03-25T04:04:51;100196.28;;;3.71;98.27
83514;BME280;73447;53.262;10.424;2024-03-25T04:07:16;100195.81;;;3.81;98.34
83514;BME280;73447;53.262;10.424;2024-03-25T04:09:43;100196.25;;;3.78;97.72
83514;BME280;73447;53.262;10.424;2024-03-25T04:12:08;100204.91;;;3.66;98.23
83514;BME280;73447;53.262;10.424;2024-03-25T04:14:33;100201.63;;;3.64;98.62
83514;BME280;73447;53.262;10.424;2024-03-25T04:16:59;100211.94;;;3.54;97.40
83514;BME280;73447;53.262;10.424;2024-03-25T04:19:25;100210.28;;;3.60;97.56
83514;BME280;73447;53.262;10.424;2024-03-25T04:21:50;100215.41;;;3.61;97.34
83514;BME280;73447;53.262;10.424;2024-03-25T04:24:17;100219.56;;;3.50;98.15
83514;BME280;73447;53.262;10.424;2024-03-25T04:26:44;100221.19;;;3.51;97.62
83514;BME280;73447;53.262;10.424;2024-03-25T04:29:09;100219.72;;;3.69;96.23
83514;BME280;73447;53.262;10.424;2024-03-25T04:31:34;100223.13;;;3.83;97.05
83514;BME280;73447;53.262;10.424;2024-03-25T04:34:01;100236.72;;;3.75;96.76
83514;BME280;73447;53.262;10.424;2024-03-25T04:36:27;100238.00;;;3.65;97.87
83514;BME280;73447;53.262;10.424;2024-03-25T04:38:52;100243.75;;;3.69;96.95
83514;BME280;73447;53.262;10.424;2024-03-25T04:41:18;100240.00;;;3.77;95.40
83514;BME280;73447;53.262;10.424;2024-03-25T04:43:43;100243.72;;;3.76;95.99
83514;BME280;73447;53.262;10.424;2024-03-25T04:46:08;100253.38;;;3.63;96.34
83514;BME280;73447;53.262;10.424;2024-03-25T04:48:34;100255.63;;;3.80;96.65
83514;BME280;73447;53.262;10.424;2024-03-25T04:50:59;100261.00;;;3.66;96.18
83514;BME280;73447;53.262;10.424;2024-03-25T04:53:25;100264.63;;;3.79;96.10
83514;BME280;73447;53.262;10.424;2024-03-25T04:55:51;100272.44;;;3.80;96.12
83514;BME280;73447;53.262;10.424;2024-03-25T04:58:16;100277.34;;;3.97;94.35
83514;BME280;73447;53.262;10.424;2024-03-25T05:00:41;100282.50;;;3.85;94.85
83514;BME280;73447;53.262;10.424;2024-03-25T05:03:07;100286.97;;;4.04;93.61
83514;BME280;73447;53.262;10.424;2024-03-25T05:05:33;100292.38;;;3.91;95.60
83514;BME280;73447;53.262;10.424;2024-03-25T05:07:59;100282.72;;;3.83;94.63
83514;BME280;73447;53.262;10.424;2024-03-25T05:10:24;100284.34;;;3.91;94.80
83514;BME280;73447;53.262;10.424;2024-03-25T05:12:50;100281.91;;;3.83;94.02
83514;BME280;73447;53.262;10.424;2024-03-25T05:15:15;100295.88;;;3.85;94.50
83514;BME280;73447;53.262;10.424;2024-03-25T05:17:41;100291.78;;;3.76;95.23
83514;BME280;73447;53.262;10.424;2024-03-25T05:20:07;100291.75;;;3.89;94.28
83514;BME280;73447;53.262;10.424;2024-03-25T05:22:32;100287.25;;;3.83;93.90
83514;BME280;73447;53.262;10.424;2024-03-25T05:24:58;100293.00;;;3.80;95.18
83514;BME280;73447;53.262;10.424;2024-03-25T05:27:23;100297.53;;;3.86;95.62
83514;BME280;73447;53.262;10.424;2024-03-25T05:29:49;100308.19;;;3.86;94.68
83514;BME280;73447;53.262;10.424;2024-03-25T05:32:15;100304.97;;;3.70;95.69
83514;BME280;73447;53.262;10.424;2024-03-25T05:34:41;100308.63;;;3.83;94.69
83514;BME280;73447;53.262;10.424;2024-03-25T05:37:07;100314.81;;;3.63;95.11
83514;BME280;73447;53.262;10.424;2024-03-25T05:39:32;100314.16;;;3.88;95.17
83514;BME280;73447;53.262;10.424;2024-03-25T05:41:58;100313.13;;;3.89;95.34
83514;BME280;73447;53.262;10.424;2024-03-25T05:44:23;100320.13;;;3.77;94.69
83514;BME280;73447;53.262;10.424;2024-03-25T05:46:48;100328.78;;;3.72;94.53
83514;BME280;73447;53.262;10.424;2024-03-25T05:49:14;100329.59;;;3.66;95.67
83514;BME280;73447;53.262;10.424;2024-03-25T05:51:39;100328.34;;;3.82;95.21
83514;BME280;73447;53.262;10.424;2024-03-25T05:54:05;100326.72;;;3.67;94.29
83514;BME280;73447;53.262;10.424;2024-03-25T05:56:30;100327.06;;;4.04;94.71
83514;BME280;73447;53.262;10.424;2024-03-25T05:58:56;100333.56;;;4.22;93.67
83514;BME280;73447;53.262;10.424;2024-03-25T06:01:22;100338.53;;;4.12;93.96
83514;BME280;73447;53.262;10.424;2024-03-25T06:03:47;100330.56;;;3.98;93.71
83514;BME280;73447;53.262;10.424;2024-03-25T06:06:13;100335.22;;;4.23;92.03
83514;BME280;73447;53.262;10.424;2024-03-25T06:08:38;100336.09;;;4.03;93.63
83514;BME280;73447;53.262;10.424;2024-03-25T06:11:04;100330.63;;;4.37;92.24
83514;BME280;73447;53.262;10.424;2024-03-25T06:13:29;100340.91;;;4.40;92.83
83514;BME280;73447;53.262;10.424;2024-03-25T06:15:55;100343.06;;;4.18;92.26
83514;BME280;73447;53.262;10.424;2024-03-25T06:18:20;100336.38;;;4.40;92.88
83514;BME280;73447;53.262;10.424;2024-03-25T06:20:46;100352.78;;;4.51;91.86
83514;BME280;73447;53.262;10.424;2024-03-25T06:23:30;100349.25;;;4.57;92.08
83514;BME280;73447;53.262;10.424;2024-03-25T06:25:56;100350.16;;;4.82;90.74
83514;BME280;73447;53.262;10.424;2024-03-25T06:28:22;100352.03;;;4.75;90.02
83514;BME280;73447;53.262;10.424;2024-03-25T06:30:48;100358.03;;;4.71;89.79
83514;BME280;73447;53.262;10.424;2024-03-25T06:33:32;100368.16;;;4.62;90.43
83514;BME280;73447;53.262;10.424;2024-03-25T06:36:17;100370.34;;;4.78;90.80
83514;BME280;73447;53.262;10.424;2024-03-25T06:38:43;100375.72;;;4.72;90.25
83514;BME280;73447;53.262;10.424;2024-03-25T06:41:09;100370.06;;;4.55;90.89
83514;BME280;73447;53.262;10.424;2024-03-25T06:43:36;100381.63;;;4.35;91.65
83514;BME280;73447;53.262;10.424;2024-03-25T06:46:01;100377.03;;;4.56;91.32
83514;BME280;73447;53.262;10.424;2024-03-25T06:48:27;100387.66;;;4.69;91.61
83514;BME280;73447;53.262;10.424;2024-03-25T06:50:57;100393.06;;;5.33;88.47
83514;BME280;73447;53.262;10.424;2024-03-25T06:53:22;100397.22;;;5.29;86.74
83514;BME280;73447;53.262;10.424;2024-03-25T06:55:55;100397.97;;;5.36;88.12
83514;BME280;73447;53.262;10.424;2024-03-25T06:58:22;100409.06;;;5.39;87.17
83514;BME280;73447;53.262;10.424;2024-03-25T07:00:48;100409.97;;;5.58;88.13
83514;BME280;73447;53.262;10.424;2024-03-25T07:03:15;100402.22;;;5.50;86.56
83514;BME280;73447;53.262;10.424;2024-03-25T07:05:41;100410.72;;;5.41;86.00
83514;BME280;73447;53.262;10.424;2024-03-25T07:08:06;100407.78;;;5.74;86.02
83514;BME280;73447;53.262;10.424;2024-03-25T07:10:32;100422.25;;;5.91;86.15
83514;BME280;73447;53.262;10.424;2024-03-25T07:12:57;100423.28;;;5.72;85.54
83514;BME280;73447;53.262;10.424;2024-03-25T07:15:22;100420.06;;;6.50;82.72
83514;BME280;73447;53.262;10.424;2024-03-25T07:17:48;100426.53;;;6.24;83.49
83514;BME280;73447;53.262;10.424;2024-03-25T07:20:13;100430.53;;;6.15;82.86
83514;BME280;73447;53.262;10.424;2024-03-25T07:22:39;100427.88;;;6.71;82.26
83514;BME280;73447;53.262;10.424;2024-03-25T07:25:04;100428.47;;;6.73;81.55
83514;BME280;73447;53.262;10.424;2024-03-25T07:27:30;100432.34;;;6.58;82.66
83514;BME280;73447;53.262;10.424;2024-03-25T07:29:55;100429.72;;;6.70;83.60
83514;BME280;73447;53.262;10.424;2024-03-25T07:32:20;100431.22;;;7.15;81.21
83514;BME280;73447;53.262;10.424;2024-03-25T07:34:46;100434.41;;;6.19;83.15
83514;BME280;73447;53.262;10.424;2024-03-25T07:37:11;100437.63;;;5.78;88.79
83514;BME280;73447;53.262;10.424;2024-03-25T07:39:36;100443.34;;;5.31;88.67
83514;BME280;73447;53.262;10.424;2024-03-25T07:42:02;100439.06;;;5.80;88.70
83514;BME280;73447;53.262;10.424;2024-03-25T07:44:27;100443.09;;;5.64;87.90
83514;BME280;73447;53.262;10.424;2024-03-25T07:46:53;100449.88;;;5.99;84.48
83514;BME280;73447;53.262;10.424;2024-03-25T07:49:18;100439.56;;;6.76;83.15
83514;BME280;73447;53.262;10.424;2024-03-25T07:51:44;100447.25;;;6.54;84.87
83514;BME280;73447;53.262;10.424;2024-03-25T07:54:09;100451.81;;;6.54;83.19
83514;BME280;73447;53.262;10.424;2024-03-25T07:56:37;100455.44;;;6.59;83.92
83514;BME280;73447;53.262;10.424;2024-03-25T07:59:03;100444.50;;;6.61;82.29
83514;BME280;73447;53.262;10.424;2024-03-25T08:01:29;100451.13;;;5.96;84.24
83514;BME280;73447;53.262;10.424;2024-03-25T08:03:54;100454.31;;;6.85;83.80
83514;BME280;73447;53.262;10.424;2024-03-25T08:06:20;100453.69;;;7.02;83.20
83514;BME280;73447;53.262;10.424;2024-03-25T08:08:47;100459.88;;;7.02;83.13
83514;BME280;73447;53.262;10.424;2024-03-25T08:11:12;100449.56;;;7.60;81.50
83514;BME280;73447;53.262;10.424;2024-03-25T08:13:37;100453.88;;;7.49;80.40
83514;BME280;73447;53.262;10.424;2024-03-25T08:16:03;100459.53;;;7.29;82.42
83514;BME280;73447;53.262;10.424;2024-03-25T08:18:29;100458.09;;;6.96;81.76
83514;BME280;73447;53.262;10.424;2024-03-25T08:20:54;100468.97;;;7.32;80.52
83514;BME280;73447;53.262;10.424;2024-03-25T08:23:20;100471.44;;;7.87;77.94
83514;BME280;73447;53.262;10.424;2024-03-25T08:25:45;100474.53;;;7.49;78.97
83514;BME280;73447;53.262;10.424;2024-03-25T08:28:10;100477.69;;;6.97;80.02
83514;BME280;73447;53.262;10.424;2024-03-25T08:30:36;100479.22;;;7.23;78.88
83514;BME280;73447;53.262;10.424;2024-03-25T08:33:02;100482.53;;;7.06;79.83
83514;BME280;73447;53.262;10.424;2024-03-25T08:35:27;100476.03;;;6.84;79.85
83514;BME280;73447;53.262;10.424;2024-03-25T08:37:53;100485.50;;;7.89;77.69
83514;BME280;73447;53.262;10.424;2024-03-25T08:40:18;100484.78;;;7.94;76.55
83514;BME280;73447;53.262;10.424;2024-03-25T08:42:44;100482.59;;;8.38;74.54
83514;BME280;73447;53.262;10.424;2024-03-25T08:45:09;100476.97;;;8.04;77.19
83514;BME280;73447;53.262;10.424;2024-03-25T08:47:35;100483.16;;;9.16;71.86
83514;BME280;73447;53.262;10.424;2024-03-25T08:50:00;100476.22;;;9.20;71.26
83514;BME280;73447;53.262;10.424;2024-03-25T08:52:26;100483.34;;;8.86;73.91
83514;BME280;73447;53.262;10.424;2024-03-25T08:54:51;100489.88;;;9.59;70.24
83514;BME280;73447;53.262;10.424;2024-03-25T08:57:16;100488.28;;;9.18;70.94
83514;BME280;73447;53.262;10.424;2024-03-25T08:59:42;100490.28;;;9.22;70.90
83514;BME280;73447;53.262;10.424;2024-03-25T09:02:07;100489.59;;;8.15;73.44
83514;BME280;73447;53.262;10.424;2024-03-25T09:04:33;100489.69;;;7.97;74.08
83514;BME280;73447;53.262;10.424;2024-03-25T09:06:59;100496.31;;;7.71;75.58
83514;BME280;73447;53.262;10.424;2024-03-25T09:09:24;100489.66;;;7.73;75.99
83514;BME280;73447;53.262;10.424;2024-03-25T09:12:08;100493.00;;;7.57;76.83
83514;BME280;73447;53.262;10.424;2024-03-25T09:14:34;100494.28;;;8.32;75.40
83514;BME280;73447;53.262;10.424;2024-03-25T09:16:59;100493.47;;;9.65;70.65
83514;BME280;73447;53.262;10.424;2024-03-25T09:19:25;100496.31;;;10.60;67.41
83514;BME280;73447;53.262;10.424;2024-03-25T09:21:50;100500.75;;;10.49;65.73
83514;BME280;73447;53.262;10.424;2024-03-25T09:24:16;100494.09;;;10.57;62.85
83514;BME280;73447;53.262;10.424;2024-03-25T09:26:43;100500.25;;;11.41;62.00
83514;BME280;73447;53.262;10.424;2024-03-25T09:29:08;100495.84;;;10.29;63.32
83514;BME280;73447;53.262;10.424;2024-03-25T09:31:33;100490.72;;;11.33;64.45
83514;BME280;73447;53.262;10.424;2024-03-25T09:33:59;100501.38;;;11.72;60.40
83514;BME280;73447;53.262;10.424;2024-03-25T09:36:24;100491.75;;;11.86;60.01
83514;BME280;73447;53.262;10.424;2024-03-25T09:38:50;100500.72;;;10.66;62.37
83514;BME280;73447;53.262;10.424;2024-03-25T09:41:18;100499.63;;;10.11;61.86
83514;BME280;73447;53.262;10.424;2024-03-25T09:43:44;100486.91;;;9.15;65.08
83514;BME280;73447;53.262;10.424;2024-03-25T09:46:11;100492.84;;;10.26;63.42
83514;BME280;73447;53.262;10.424;2024-03-25T09:48:37;100498.53;;;11.07;62.71
83514;BME280;73447;53.262;10.424;2024-03-25T09:51:04;100503.25;;;10.95;61.23
83514;BME280;73447;53.262;10.424;2024-03-25T09:53:29;100504.91;;;10.79;62.88
83514;BME280;73447;53.262;10.424;2024-03-25T09:55:56;100499.44;;;9.67;62.91
83514;BME280;73447;53.262;10.424;2024-03-25T09:58:22;100511.53;;;9.64;62.82
83514;BME280;73447;53.262;10.424;2024-03-25T10:00:49;100505.25;;;8.78;66.87
83514;BME280;73447;53.262;10.424;2024-03-25T10:03:15;100501.75;;;8.77;68.66
83514;BME280;73447;53.262;10.424;2024-03-25T10:05:40;100499.44;;;9.09;67.46
83514;BME280;73447;53.262;10.424;2024-03-25T10:08:07;100501.91;;;9.69;63.79
83514;BME280;73447;53.262;10.424;2024-03-25T10:10:35;100502.06;;;9.79;65.11
83514;BME280;73447;53.262;10.424;2024-03-25T10:13:03;100496.38;;;10.65;63.54
83514;BME280;73447;53.262;10.424;2024-03-25T10:15:28;100502.03;;;10.64;63.18
83514;BME280;73447;53.262;10.424;2024-03-25T10:17:54;100490.31;;;11.46;60.23
83514;BME280;73447;53.262;10.424;2024-03-25T10:20:19;100493.63;;;11.04;61.08
83514;BME280;73447;53.262;10.424;2024-03-25T10:22:45;100507.00;;;10.94;60.10
83514;BME280;73447;53.262;10.424;2024-03-25T10:25:28;100501.97;;;10.81;58.34
83514;BME280;73447;53.262;10.424;2024-03-25T10:27:58;100496.69;;;10.13;60.99
83514;BME280;73447;53.262;10.424;2024-03-25T10:30:24;100505.97;;;10.22;58.65
83514;BME280;73447;53.262;10.424;2024-03-25T10:33:05;100499.59;;;9.32;59.73
83514;BME280;73447;53.262;10.424;2024-03-25T10:35:32;100498.31;;;9.80;58.12
83514;BME280;73447;53.262;10.424;2024-03-25T10:38:00;100495.75;;;9.27;59.70
83514;BME280;73447;53.262;10.424;2024-03-25T10:40:31;100494.50;;;9.18;58.66
83514;BME280;73447;53.262;10.424;2024-03-25T10:43:07;100496.75;;;9.67;58.79
83514;BME280;73447;53.262;10.424;2024-03-25T10:45:49;100510.09;;;10.42;56.39
83514;BME280;73447;53.262;10.424;2024-03-25T10:48:34;100504.53;;;10.31;57.75
83514;BME280;73447;53.262;10.424;2024-03-25T10:51:03;100501.22;;;11.57;54.09
83514;BME280;73447;53.262;10.424;2024-03-25T10:53:32;100507.47;;;9.79;55.89
83514;BME280;73447;53.262;10.424;2024-03-25T10:56:00;100510.00;;;9.69;59.59
83514;BME280;73447;53.262;10.424;2024-03-25T10:58:27;100505.69;;;10.35;56.63
83514;BME280;73447;53.262;10.424;2024-03-25T11:00:54;100516.38;;;10.64;59.71
83514;BME280;73447;53.262;10.424;2024-03-25T11:03:22;100512.47;;;9.58;58.92
83514;BME280;73447;53.262;10.424;2024-03-25T11:05:48;100524.34;;;9.28;61.09
83514;BME280;73447;53.262;10.424;2024-03-25T11:08:15;100534.19;;;8.35;66.91
83514;BME280;73447;53.262;10.424;2024-03-25T11:10:45;100526.56;;;8.08;69.50
83514;BME280;73447;53.262;10.424;2024-03-25T11:13:16;100529.78;;;7.87;74.38
83514;BME280;73447;53.262;10.424;2024-03-25T11:15:43;100529.69;;;9.86;67.54
83514;BME280;73447;53.262;10.424;2024-03-25T11:18:16;100516.41;;;9.51;66.73
83514;BME280;73447;53.262;10.424;2024-03-25T11:20:42;100519.41;;;10.51;63.32
83514;BME280;73447;53.262;10.424;2024-03-25T11:23:14;100517.13;;;10.82;60.14
83514;BME280;73447;53.262;10.424;2024-03-25T11:25:41;100525.78;;;10.62;59.83
83514;BME280;73447;53.262;10.424;2024-03-25T11:28:07;100528.84;;;11.09;59.65
83514;BME280;73447;53.262;10.424;2024-03-25T11:30:33;100510.19;;;15.82;50.43
83514;BME280;73447;53.262;10.424;2024-03-25T11:33:02;100506.66;;;16.45;45.55
83514;BME280;73447;53.262;10.424;2024-03-25T11:35:29;100508.03;;;14.79;46.14
83514;BME280;73447;53.262;10.424;2024-03-25T11:37:55;100506.75;;;13.79;51.25
83514;BME280;73447;53.262;10.424;2024-03-25T11:40:20;100506.00;;;15.55;44.88
83514;BME280;73447;53.262;10.424;2024-03-25T11:42:46;100499.72;;;15.59;43.50
83514;BME280;73447;53.262;10.424;2024-03-25T11:45:21;100501.47;;;15.85;44.12
83514;BME280;73447;53.262;10.424;2024-03-25T11:47:48;100494.19;;;15.70;42.72
83514;BME280;73447;53.262;10.424;2024-03-25T11:50:18;100487.44;;;14.37;46.41
83514;BME280;73447;53.262;10.424;2024-03-25T11:52:44;100496.84;;;12.10;49.65
83514;BME280;73447;53.262;10.424;2024-03-25T11:55:10;100501.34;;;11.18;55.63
83514;BME280;73447;53.262;10.424;2024-03-25T11:57:37;100504.97;;;10.62;56.97
83514;BME280;73447;53.262;10.424;2024-03-25T12:00:03;100512.16;;;10.00;59.38
83514;BME280;73447;53.262;10.424;2024-03-25T12:02:31;100506.16;;;9.98;57.87
83514;BME280;73447;53.262;10.424;2024-03-25T12:04:58;100515.97;;;9.42;59.52
83514;BME280;73447;53.262;10.424;2024-03-25T12:07:23;100507.59;;;9.26;60.90
83514;BME280;73447;53.262;10.424;2024-03-25T12:09:49;100504.69;;;9.16;61.77
83514;BME280;73447;53.262;10.424;2024-03-25T12:12:32;100499.78;;;9.13;62.34
83514;BME280;73447;53.262;10.424;2024-03-25T12:15:00;100495.28;;;9.31;61.67
83514;BME280;73447;53.262;10.424;2024-03-25T12:17:28;100494.41;;;9.13;61.94
83514;BME280;73447;53.262;10.424;2024-03-25T12:20:02;100501.09;;;9.85;60.24
83514;BME280;73447;53.262;10.424;2024-03-25T12:22:34;100491.53;;;9.94;58.54
83514;BME280;73447;53.262;10.424;2024-03-25T12:25:01;100492.72;;;9.53;60.40
83514;BME280;73447;53.262;10.424;2024-03-25T12:27:28;100497.56;;;10.35;59.24
83514;BME280;73447;53.262;10.424;2024-03-25T12:30:03;100481.31;;;9.96;59.71
83514;BME280;73447;53.262;10.424;2024-03-25T12:34:59;100468.69;;;11.24;56.33
83514;BME280;73447;53.262;10.424;2024-03-25T12:37:26;100472.44;;;10.52;56.94
83514;BME280;73447;53.262;10.424;2024-03-25T12:39:52;100468.81;;;10.63;56.19
83514;BME280;73447;53.262;10.424;2024-03-25T12:42:17;100468.38;;;10.71;58.63
83514;BME280;73447;53.262;10.424;2024-03-25T12:44:43;100480.31;;;10.75;55.51
83514;BME280;73447;53.262;10.424;2024-03-25T12:47:09;100471.56;;;10.46;56.36
83514;BME280;73447;53.262;10.424;2024-03-25T12:49:34;100481.00;;;9.93;57.08